sensor_id;sensor_type;location;lat;lon;timestamp;pressure;altitude;pressure_sealevel;temperature;humidity
81299;BME280;70766;53.170;18.160;2023-07-02T00:00:11;99792.40;;;19.49;65.03
81299;BME280;70766;53.170;18.160;2023-07-02T00:03:00;99796.26;;;19.47;65.30
81299;BME280;70766;53.170;18.160;2023-07-02T00:05:29;99797.80;;;19.45;65.39
81299;BME280;70766;53.170;18.160;2023-07-02T00:07:57;99794.67;;;19.45;66.30
81299;BME280;70766;53.170;18.160;2023-07-02T00:10:26;99793.80;;;19.45;65.93
81299;BME280;70766;53.170;18.160;2023-07-02T00:12:54;99787.12;;;19.43;65.79
81299;BME280;70766;53.170;18.160;2023-07-02T00:15:22;99788.59;;;19.43;66.18
81299;BME280;70766;53.170;18.160;2023-07-02T00:17:50;99789.35;;;19.41;66.21
81299;BME280;70766;53.170;18.160;2023-07-02T00:20:18;99796.30;;;19.39;66.07
81299;BME280;70766;53.170;18.160;2023-07-02T00:22:48;99799.66;;;19.38;67.32
81299;BME280;70766;53.170;18.160;2023-07-02T00:25:16;99800.48;;;19.38;66.60
81299;BME280;70766;53.170;18.160;2023-07-02T00:27:45;99802.68;;;19.37;66.41
81299;BME280;70766;53.170;18.160;2023-07-02T00:30:13;99804.66;;;19.33;66.65
81299;BME280;70766;53.170;18.160;2023-07-02T00:32:42;99797.16;;;19.31;66.81
81299;BME280;70766;53.170;18.160;2023-07-02T00:35:12;99798.32;;;19.29;66.90
81299;BME280;70766;53.170;18.160;2023-07-02T00:37:41;99794.70;;;19.27;67.07
81299;BME280;70766;53.170;18.160;2023-07-02T00:40:11;99792.54;;;19.24;66.84
81299;BME280;70766;53.170;18.160;2023-07-02T00:42:39;99792.52;;;19.22;67.37
81299;BME280;70766;53.170;18.160;2023-07-02T00:45:08;99789.63;;;19.20;67.20
81299;BME280;70766;53.170;18.160;2023-07-02T00:47:37;99787.68;;;19.19;67.46
81299;BME280;70766;53.170;18.160;2023-07-02T00:50:06;99786.91;;;19.17;67.90
81299;BME280;70766;53.170;18.160;2023-07-02T00:52:34;99776.39;;;19.13;68.59
81299;BME280;70766;53.170;18.160;2023-07-02T00:55:02;99778.77;;;19.09;68.35
81299;BME280;70766;53.170;18.160;2023-07-02T00:57:30;99778.70;;;19.04;68.70
81299;BME280;70766;53.170;18.160;2023-07-02T00:59:58;99778.78;;;19.00;68.78
81299;BME280;70766;53.170;18.160;2023-07-02T01:02:31;99773.77;;;18.98;68.88
81299;BME280;70766;53.170;18.160;2023-07-02T01:05:00;99770.63;;;18.95;69.25
81299;BME280;70766;53.170;18.160;2023-07-02T01:07:29;99769.77;;;18.91;69.54
81299;BME280;70766;53.170;18.160;2023-07-02T01:09:57;99767.24;;;18.88;70.15
81299;BME280;70766;53.170;18.160;2023-07-02T01:12:27;99767.77;;;18.86;70.19
81299;BME280;70766;53.170;18.160;2023-07-02T01:15:00;99763.03;;;18.83;70.92
81299;BME280;70766;53.170;18.160;2023-07-02T01:17:32;99766.30;;;18.81;70.12
81299;BME280;70766;53.170;18.160;2023-07-02T01:20:08;99765.06;;;18.77;71.02
81299;BME280;70766;53.170;18.160;2023-07-02T01:22:37;99765.48;;;18.75;71.31
81299;BME280;70766;53.170;18.160;2023-07-02T01:25:07;99765.70;;;18.72;71.73
81299;BME280;70766;53.170;18.160;2023-07-02T01:27:37;99764.93;;;18.69;72.46
81299;BME280;70766;53.170;18.160;2023-07-02T01:30:06;99763.08;;;18.65;74.42
81299;BME280;70766;53.170;18.160;2023-07-02T01:32:37;99758.34;;;18.62;73.34
81299;BME280;70766;53.170;18.160;2023-07-02T01:35:05;99759.26;;;18.59;74.88
81299;BME280;70766;53.170;18.160;2023-07-02T01:37:33;99756.24;;;18.55;75.82
81299;BME280;70766;53.170;18.160;2023-07-02T01:40:07;99754.81;;;18.53;74.25
81299;BME280;70766;53.170;18.160;2023-07-02T01:42:36;99754.27;;;18.50;74.23
81299;BME280;70766;53.170;18.160;2023-07-02T01:45:05;99753.88;;;18.46;77.35
81299;BME280;70766;53.170;18.160;2023-07-02T01:47:33;99753.10;;;18.43;76.30
81299;BME280;70766;53.170;18.160;2023-07-02T01:50:03;99753.45;;;18.39;77.58
81299;BME280;70766;53.170;18.160;2023-07-02T01:52:32;99751.71;;;18.39;78.63
81299;BME280;70766;53.170;18.160;2023-07-02T01:55:02;99752.14;;;18.35;82.02
81299;BME280;70766;53.170;18.160;2023-07-02T01:57:31;99753.19;;;18.32;82.89
81299;BME280;70766;53.170;18.160;2023-07-02T01:59:59;99758.17;;;18.23;89.72
81299;BME280;70766;53.170;18.160;2023-07-02T02:02:27;99758.63;;;18.09;92.95
81299;BME280;70766;53.170;18.160;2023-07-02T02:04:56;99755.52;;;17.94;94.67
81299;BME280;70766;53.170;18.160;2023-07-02T02:07:24;99749.15;;;17.82;97.58
81299;BME280;70766;53.170;18.160;2023-07-02T02:09:54;99746.18;;;17.72;99.68
81299;BME280;70766;53.170;18.160;2023-07-02T02:12:22;99744.85;;;17.66;97.97
81299;BME280;70766;53.170;18.160;2023-07-02T02:14:50;99747.65;;;17.61;99.86
81299;BME280;70766;53.170;18.160;2023-07-02T02:17:19;99743.77;;;17.58;100.00
81299;BME280;70766;53.170;18.160;2023-07-02T02:19:47;99739.08;;;17.58;100.00
81299;BME280;70766;53.170;18.160;2023-07-02T02:22:15;99744.48;;;17.55;100.00
81299;BME280;70766;53.170;18.160;2023-07-02T02:24:44;99739.92;;;17.51;100.00
81299;BME280;70766;53.170;18.160;2023-07-02T02:27:12;99739.14;;;17.53;100.00
81299;BME280;70766;53.170;18.160;2023-07-02T02:29:40;99738.56;;;17.52;100.00
81299;BME280;70766;53.170;18.160;2023-07-02T02:32:10;99741.53;;;17.53;100.00
81299;BME280;70766;53.170;18.160;2023-07-02T02:34:39;99741.81;;;17.56;100.00
81299;BME280;70766;53.170;18.160;2023-07-02T02:37:07;99739.48;;;17.58;100.00
81299;BME280;70766;53.170;18.160;2023-07-02T02:39:36;99737.52;;;17.63;100.00
81299;BME280;70766;53.170;18.160;2023-07-02T02:42:05;99742.42;;;17.65;100.00
81299;BME280;70766;53.170;18.160;2023-07-02T02:44:33;99741.89;;;17.68;100.00
81299;BME280;70766;53.170;18.160;2023-07-02T02:47:02;99745.17;;;17.70;100.00
81299;BME280;70766;53.170;18.160;2023-07-02T02:49:33;99743.23;;;17.71;100.00
81299;BME280;70766;53.170;18.160;2023-07-02T02:52:01;99743.02;;;17.69;100.00
81299;BME280;70766;53.170;18.160;2023-07-02T02:54:30;99741.64;;;17.67;100.00
81299;BME280;70766;53.170;18.160;2023-07-02T02:56:58;99735.91;;;17.61;100.00
81299;BME280;70766;53.170;18.160;2023-07-02T02:59:27;99731.76;;;17.57;100.00
81299;BME280;70766;53.170;18.160;2023-07-02T03:01:55;99736.14;;;17.50;100.00
81299;BME280;70766;53.170;18.160;2023-07-02T03:04:24;99735.55;;;17.41;100.00
81299;BME280;70766;53.170;18.160;2023-07-02T03:06:53;99731.66;;;17.36;100.00
81299;BME280;70766;53.170;18.160;2023-07-02T03:09:21;99731.90;;;17.33;100.00
81299;BME280;70766;53.170;18.160;2023-07-02T03:11:49;99730.82;;;17.30;100.00
81299;BME280;70766;53.170;18.160;2023-07-02T03:14:18;99727.65;;;17.23;100.00
81299;BME280;70766;53.170;18.160;2023-07-02T03:16:46;99729.43;;;17.17;100.00
81299;BME280;70766;53.170;18.160;2023-07-02T03:19:14;99730.38;;;17.15;100.00
81299;BME280;70766;53.170;18.160;2023-07-02T03:21:44;99730.56;;;17.22;100.00
81299;BME280;70766;53.170;18.160;2023-07-02T03:24:12;99733.10;;;17.25;100.00
81299;BME280;70766;53.170;18.160;2023-07-02T03:26:41;99732.06;;;17.26;100.00
81299;BME280;70766;53.170;18.160;2023-07-02T03:29:10;99729.11;;;17.29;100.00
81299;BME280;70766;53.170;18.160;2023-07-02T03:31:39;99731.66;;;17.36;100.00
81299;BME280;70766;53.170;18.160;2023-07-02T03:34:09;99725.23;;;17.47;100.00
81299;BME280;70766;53.170;18.160;2023-07-02T03:36:37;99726.17;;;17.63;100.00
81299;BME280;70766;53.170;18.160;2023-07-02T03:39:06;99727.35;;;17.71;100.00
81299;BME280;70766;53.170;18.160;2023-07-02T03:41:37;99726.53;;;17.81;100.00
81299;BME280;70766;53.170;18.160;2023-07-02T03:44:05;99724.60;;;17.92;100.00
81299;BME280;70766;53.170;18.160;2023-07-02T03:46:34;99720.85;;;18.02;100.00
81299;BME280;70766;53.170;18.160;2023-07-02T03:49:03;99722.83;;;18.04;100.00
81299;BME280;70766;53.170;18.160;2023-07-02T03:51:32;99725.28;;;18.04;100.00
81299;BME280;70766;53.170;18.160;2023-07-02T03:54:00;99729.38;;;18.02;100.00
81299;BME280;70766;53.170;18.160;2023-07-02T03:56:28;99727.52;;;18.00;100.00
81299;BME280;70766;53.170;18.160;2023-07-02T03:58:56;99732.48;;;18.02;100.00
81299;BME280;70766;53.170;18.160;2023-07-02T04:01:25;99732.05;;;17.99;100.00
81299;BME280;70766;53.170;18.160;2023-07-02T04:03:55;99728.66;;;18.09;100.00
81299;BME280;70766;53.170;18.160;2023-07-02T04:06:23;99728.95;;;18.17;100.00
81299;BME280;70766;53.170;18.160;2023-07-02T04:08:51;99726.05;;;18.32;100.00
81299;BME280;70766;53.170;18.160;2023-07-02T04:11:19;99725.20;;;18.41;100.00
81299;BME280;70766;53.170;18.160;2023-07-02T04:13:47;99725.89;;;18.49;100.00
81299;BME280;70766;53.170;18.160;2023-07-02T04:16:15;99725.77;;;18.46;100.00
81299;BME280;70766;53.170;18.160;2023-07-02T04:18:43;99724.97;;;18.42;100.00
81299;BME280;70766;53.170;18.160;2023-07-02T04:21:11;99722.61;;;18.40;100.00
81299;BME280;70766;53.170;18.160;2023-07-02T04:23:40;99721.63;;;18.44;100.00
81299;BME280;70766;53.170;18.160;2023-07-02T04:26:08;99721.63;;;18.49;100.00
81299;BME280;70766;53.170;18.160;2023-07-02T04:28:56;99721.80;;;18.63;100.00
81299;BME280;70766;53.170;18.160;2023-07-02T04:31:24;99715.67;;;18.75;100.00
81299;BME280;70766;53.170;18.160;2023-07-02T04:33:53;99721.33;;;18.89;100.00
81299;BME280;70766;53.170;18.160;2023-07-02T04:36:21;99721.26;;;18.92;100.00
81299;BME280;70766;53.170;18.160;2023-07-02T04:38:49;99720.02;;;18.96;100.00
81299;BME280;70766;53.170;18.160;2023-07-02T04:41:18;99723.02;;;18.96;100.00
81299;BME280;70766;53.170;18.160;2023-07-02T04:43:47;99721.21;;;18.97;100.00
81299;BME280;70766;53.170;18.160;2023-07-02T04:46:16;99724.54;;;19.00;100.00
81299;BME280;70766;53.170;18.160;2023-07-02T04:48:46;99725.08;;;19.09;100.00
81299;BME280;70766;53.170;18.160;2023-07-02T04:51:14;99727.90;;;19.09;100.00
81299;BME280;70766;53.170;18.160;2023-07-02T04:53:42;99730.05;;;19.06;100.00
81299;BME280;70766;53.170;18.160;2023-07-02T04:56:10;99732.55;;;19.05;100.00
81299;BME280;70766;53.170;18.160;2023-07-02T04:58:38;99731.27;;;18.91;100.00
81299;BME280;70766;53.170;18.160;2023-07-02T05:01:06;99734.88;;;18.80;100.00
81299;BME280;70766;53.170;18.160;2023-07-02T05:03:34;99734.16;;;18.70;100.00
81299;BME280;70766;53.170;18.160;2023-07-02T05:06:03;99737.73;;;18.63;100.00
81299;BME280;70766;53.170;18.160;2023-07-02T05:08:31;99739.70;;;18.59;100.00
81299;BME280;70766;53.170;18.160;2023-07-02T05:10:59;99751.25;;;18.49;100.00
81299;BME280;70766;53.170;18.160;2023-07-02T05:13:27;99752.13;;;18.36;100.00
81299;BME280;70766;53.170;18.160;2023-07-02T05:15:55;99750.84;;;18.24;100.00
81299;BME280;70766;53.170;18.160;2023-07-02T05:18:23;99761.45;;;18.06;100.00
81299;BME280;70766;53.170;18.160;2023-07-02T05:20:52;99768.15;;;17.89;100.00
81299;BME280;70766;53.170;18.160;2023-07-02T05:23:20;99768.14;;;17.75;100.00
81299;BME280;70766;53.170;18.160;2023-07-02T05:25:48;99778.92;;;17.59;100.00
81299;BME280;70766;53.170;18.160;2023-07-02T05:28:16;99770.59;;;17.54;100.00
81299;BME280;70766;53.170;18.160;2023-07-02T05:30:44;99773.23;;;17.49;100.00
81299;BME280;70766;53.170;18.160;2023-07-02T05:33:12;99773.78;;;17.51;100.00
81299;BME280;70766;53.170;18.160;2023-07-02T05:35:41;99775.36;;;17.59;100.00
81299;BME280;70766;53.170;18.160;2023-07-02T05:38:09;99778.94;;;17.70;100.00
81299;BME280;70766;53.170;18.160;2023-07-02T05:40:37;99782.86;;;17.82;100.00
81299;BME280;70766;53.170;18.160;2023-07-02T05:43:05;99786.23;;;17.89;100.00
81299;BME280;70766;53.170;18.160;2023-07-02T05:45:33;99781.92;;;18.00;100.00
81299;BME280;70766;53.170;18.160;2023-07-02T05:48:01;99778.71;;;18.07;100.00
81299;BME280;70766;53.170;18.160;2023-07-02T05:50:29;99786.52;;;18.14;100.00
81299;BME280;70766;53.170;18.160;2023-07-02T05:52:57;99786.31;;;18.23;100.00
81299;BME280;70766;53.170;18.160;2023-07-02T05:55:26;99790.98;;;18.33;100.00
81299;BME280;70766;53.170;18.160;2023-07-02T05:57:54;99783.89;;;18.58;100.00
81299;BME280;70766;53.170;18.160;2023-07-02T06:00:22;99786.61;;;18.89;100.00
81299;BME280;70766;53.170;18.160;2023-07-02T06:02:50;99789.12;;;19.26;100.00
81299;BME280;70766;53.170;18.160;2023-07-02T06:05:19;99790.84;;;19.43;100.00
81299;BME280;70766;53.170;18.160;2023-07-02T06:07:47;99794.44;;;19.35;100.00
81299;BME280;70766;53.170;18.160;2023-07-02T06:10:15;99789.02;;;19.34;100.00
81299;BME280;70766;53.170;18.160;2023-07-02T06:12:45;99784.52;;;19.26;100.00
81299;BME280;70766;53.170;18.160;2023-07-02T06:15:13;99779.34;;;19.19;100.00
81299;BME280;70766;53.170;18.160;2023-07-02T06:17:41;99778.84;;;19.21;100.00
81299;BME280;70766;53.170;18.160;2023-07-02T06:20:10;99778.21;;;19.27;100.00
81299;BME280;70766;53.170;18.160;2023-07-02T06:22:38;99785.79;;;19.30;100.00
81299;BME280;70766;53.170;18.160;2023-07-02T06:25:08;99787.16;;;19.44;100.00
81299;BME280;70766;53.170;18.160;2023-07-02T06:27:36;99795.27;;;19.44;100.00
81299;BME280;70766;53.170;18.160;2023-07-02T06:30:04;99797.36;;;19.46;100.00
81299;BME280;70766;53.170;18.160;2023-07-02T06:32:33;99799.10;;;19.60;100.00
81299;BME280;70766;53.170;18.160;2023-07-02T06:35:02;99805.05;;;19.62;100.00
81299;BME280;70766;53.170;18.160;2023-07-02T06:37:30;99804.77;;;19.64;100.00
81299;BME280;70766;53.170;18.160;2023-07-02T06:39:58;99804.02;;;19.82;100.00
81299;BME280;70766;53.170;18.160;2023-07-02T06:42:26;99799.56;;;20.14;100.00
81299;BME280;70766;53.170;18.160;2023-07-02T06:44:55;99798.45;;;20.56;100.00
81299;BME280;70766;53.170;18.160;2023-07-02T06:47:23;99798.54;;;20.61;99.67
81299;BME280;70766;53.170;18.160;2023-07-02T06:49:52;99795.56;;;21.21;94.02
81299;BME280;70766;53.170;18.160;2023-07-02T06:52:20;99791.33;;;22.06;86.36
81299;BME280;70766;53.170;18.160;2023-07-02T06:54:48;99804.56;;;22.40;82.58
81299;BME280;70766;53.170;18.160;2023-07-02T06:57:16;99803.67;;;22.46;76.13
81299;BME280;70766;53.170;18.160;2023-07-02T06:59:44;99798.31;;;23.14;74.06
81299;BME280;70766;53.170;18.160;2023-07-02T07:02:15;99804.89;;;24.12;62.20
81299;BME280;70766;53.170;18.160;2023-07-02T07:04:44;99810.41;;;24.29;61.29
81299;BME280;70766;53.170;18.160;2023-07-02T07:07:12;99810.59;;;24.27;56.77
81299;BME280;70766;53.170;18.160;2023-07-02T07:09:40;99815.27;;;24.14;55.33
81299;BME280;70766;53.170;18.160;2023-07-02T07:12:08;99818.13;;;23.68;56.14
81299;BME280;70766;53.170;18.160;2023-07-02T07:14:36;99828.83;;;23.27;56.69
81299;BME280;70766;53.170;18.160;2023-07-02T07:17:04;99824.65;;;22.96;56.99
81299;BME280;70766;53.170;18.160;2023-07-02T07:19:32;99822.48;;;22.89;56.70
81299;BME280;70766;53.170;18.160;2023-07-02T07:22:01;99826.38;;;22.87;56.61
81299;BME280;70766;53.170;18.160;2023-07-02T07:24:29;99835.39;;;22.73;57.57
81299;BME280;70766;53.170;18.160;2023-07-02T07:26:57;99836.04;;;22.56;56.64
81299;BME280;70766;53.170;18.160;2023-07-02T07:29:25;99841.00;;;22.23;57.54
81299;BME280;70766;53.170;18.160;2023-07-02T07:31:53;99843.10;;;22.39;57.67
81299;BME280;70766;53.170;18.160;2023-07-02T07:34:21;99838.38;;;22.40;55.99
81299;BME280;70766;53.170;18.160;2023-07-02T07:36:49;99841.92;;;22.23;56.05
81299;BME280;70766;53.170;18.160;2023-07-02T07:39:18;99845.73;;;22.45;55.95
81299;BME280;70766;53.170;18.160;2023-07-02T07:41:47;99840.85;;;22.65;54.39
81299;BME280;70766;53.170;18.160;2023-07-02T07:44:16;99837.55;;;22.59;54.87
81299;BME280;70766;53.170;18.160;2023-07-02T07:46:44;99835.45;;;22.30;54.77
81299;BME280;70766;53.170;18.160;2023-07-02T07:49:13;99838.14;;;22.17;54.18
81299;BME280;70766;53.170;18.160;2023-07-02T07:51:41;99842.48;;;21.67;55.33
81299;BME280;70766;53.170;18.160;2023-07-02T07:54:10;99843.79;;;21.34;56.64
81299;BME280;70766;53.170;18.160;2023-07-02T07:56:39;99849.39;;;21.55;56.87
81299;BME280;70766;53.170;18.160;2023-07-02T07:59:07;99852.58;;;22.07;55.85
81299;BME280;70766;53.170;18.160;2023-07-02T08:01:35;99849.58;;;22.31;55.09
81299;BME280;70766;53.170;18.160;2023-07-02T08:04:03;99847.85;;;22.42;54.90
81299;BME280;70766;53.170;18.160;2023-07-02T08:06:31;99852.30;;;22.09;54.99
81299;BME280;70766;53.170;18.160;2023-07-02T08:09:00;99857.02;;;21.99;55.17
81299;BME280;70766;53.170;18.160;2023-07-02T08:11:28;99857.62;;;21.78;55.31
81299;BME280;70766;53.170;18.160;2023-07-02T08:13:56;99856.77;;;23.00;53.87
81299;BME280;70766;53.170;18.160;2023-07-02T08:16:24;99855.98;;;23.33;50.15
81299;BME280;70766;53.170;18.160;2023-07-02T08:18:52;99854.88;;;23.47;50.65
81299;BME280;70766;53.170;18.160;2023-07-02T08:21:21;99859.05;;;23.45;49.25
81299;BME280;70766;53.170;18.160;2023-07-02T08:23:49;99862.45;;;22.94;49.02
81299;BME280;70766;53.170;18.160;2023-07-02T08:26:17;99858.55;;;22.23;48.85
81299;BME280;70766;53.170;18.160;2023-07-02T08:28:45;99865.40;;;21.88;48.94
81299;BME280;70766;53.170;18.160;2023-07-02T08:31:13;99867.69;;;21.92;49.31
81299;BME280;70766;53.170;18.160;2023-07-02T08:33:41;99874.42;;;21.91;49.64
81299;BME280;70766;53.170;18.160;2023-07-02T08:36:09;99868.14;;;22.22;48.62
81299;BME280;70766;53.170;18.160;2023-07-02T08:38:37;99866.57;;;22.48;47.69
81299;BME280;70766;53.170;18.160;2023-07-02T08:41:07;99862.30;;;22.81;46.86
81299;BME280;70766;53.170;18.160;2023-07-02T08:43:36;99864.21;;;23.23;46.41
81299;BME280;70766;53.170;18.160;2023-07-02T08:46:04;99862.05;;;23.60;46.16
81299;BME280;70766;53.170;18.160;2023-07-02T08:48:32;99863.39;;;24.10;45.09
81299;BME280;70766;53.170;18.160;2023-07-02T08:51:02;99861.55;;;24.22;43.78
81299;BME280;70766;53.170;18.160;2023-07-02T08:53:30;99864.75;;;24.51;41.91
81299;BME280;70766;53.170;18.160;2023-07-02T08:56:02;99870.38;;;24.51;41.24
81299;BME280;70766;53.170;18.160;2023-07-02T08:58:31;99876.83;;;24.75;41.31
81299;BME280;70766;53.170;18.160;2023-07-02T09:01:09;99875.99;;;24.67;41.07
81299;BME280;70766;53.170;18.160;2023-07-02T09:03:39;99877.90;;;24.99;41.11
81299;BME280;70766;53.170;18.160;2023-07-02T09:06:09;99875.00;;;25.15;40.16
81299;BME280;70766;53.170;18.160;2023-07-02T09:08:39;99866.04;;;25.22;39.60
81299;BME280;70766;53.170;18.160;2023-07-02T09:11:11;99865.80;;;25.33;39.30
81299;BME280;70766;53.170;18.160;2023-07-02T09:13:48;99858.96;;;25.54;38.38
81299;BME280;70766;53.170;18.160;2023-07-02T09:16:23;99870.06;;;25.81;38.43
81299;BME280;70766;53.170;18.160;2023-07-02T09:24:21;99854.22;;;25.80;37.57
81299;BME280;70766;53.170;18.160;2023-07-02T09:26:56;99848.20;;;25.49;37.55
81299;BME280;70766;53.170;18.160;2023-07-02T09:29:31;99859.39;;;25.16;38.20
81299;BME280;70766;53.170;18.160;2023-07-02T09:32:03;99853.27;;;25.41;38.49
81299;BME280;70766;53.170;18.160;2023-07-02T09:34:40;99860.92;;;25.40;38.53
81299;BME280;70766;53.170;18.160;2023-07-02T09:37:10;99867.63;;;25.76;38.09
81299;BME280;70766;53.170;18.160;2023-07-02T09:39:38;99864.45;;;26.03;37.39
81299;BME280;70766;53.170;18.160;2023-07-02T09:42:08;99865.15;;;26.05;37.05
81299;BME280;70766;53.170;18.160;2023-07-02T09:44:38;99877.20;;;26.46;36.32
81299;BME280;70766;53.170;18.160;2023-07-02T09:47:08;99874.69;;;26.57;36.00
81299;BME280;70766;53.170;18.160;2023-07-02T09:49:49;99870.48;;;26.81;35.94
81299;BME280;70766;53.170;18.160;2023-07-02T09:52:20;99865.61;;;27.18;34.49
81299;BME280;70766;53.170;18.160;2023-07-02T09:54:49;99864.98;;;27.09;34.67
81299;BME280;70766;53.170;18.160;2023-07-02T09:57:17;99867.99;;;26.83;35.01
81299;BME280;70766;53.170;18.160;2023-07-02T09:59:45;99858.98;;;26.93;34.74
81299;BME280;70766;53.170;18.160;2023-07-02T10:02:14;99856.23;;;26.90;35.04
81299;BME280;70766;53.170;18.160;2023-07-02T10:04:45;99853.92;;;26.95;34.53
81299;BME280;70766;53.170;18.160;2023-07-02T10:07:29;99865.98;;;27.01;34.34
81299;BME280;70766;53.170;18.160;2023-07-02T10:09:57;99872.38;;;26.65;34.38
81299;BME280;70766;53.170;18.160;2023-07-02T10:12:28;99868.84;;;26.54;34.04
81299;BME280;70766;53.170;18.160;2023-07-02T10:14:58;99870.47;;;26.78;34.07
81299;BME280;70766;53.170;18.160;2023-07-02T10:17:35;99871.80;;;27.20;33.64
81299;BME280;70766;53.170;18.160;2023-07-02T10:20:06;99876.86;;;27.24;33.28
81299;BME280;70766;53.170;18.160;2023-07-02T10:22:46;99875.95;;;27.13;33.28
81299;BME280;70766;53.170;18.160;2023-07-02T10:25:40;99877.09;;;26.88;32.76
81299;BME280;70766;53.170;18.160;2023-07-02T10:28:20;99877.73;;;26.68;32.88
81299;BME280;70766;53.170;18.160;2023-07-02T10:30:50;99879.80;;;26.04;33.96
81299;BME280;70766;53.170;18.160;2023-07-02T10:33:20;99869.16;;;25.88;34.05
81299;BME280;70766;53.170;18.160;2023-07-02T10:35:51;99884.13;;;25.71;34.24
81299;BME280;70766;53.170;18.160;2023-07-02T10:38:24;99882.11;;;25.23;34.82
81299;BME280;70766;53.170;18.160;2023-07-02T10:40:55;99892.96;;;24.85;35.13
81299;BME280;70766;53.170;18.160;2023-07-02T10:43:31;99885.77;;;24.69;35.23
81299;BME280;70766;53.170;18.160;2023-07-02T10:46:00;99891.41;;;24.82;35.58
81299;BME280;70766;53.170;18.160;2023-07-02T10:48:30;99889.80;;;25.52;34.70
81299;BME280;70766;53.170;18.160;2023-07-02T10:50:58;99890.76;;;25.77;33.97
81299;BME280;70766;53.170;18.160;2023-07-02T10:53:26;99880.58;;;26.22;34.09
81299;BME280;70766;53.170;18.160;2023-07-02T10:55:56;99871.90;;;26.45;33.48
81299;BME280;70766;53.170;18.160;2023-07-02T10:58:26;99865.70;;;26.62;33.37
81299;BME280;70766;53.170;18.160;2023-07-02T11:00:54;99866.98;;;26.58;33.23
81299;BME280;70766;53.170;18.160;2023-07-02T11:03:25;99861.95;;;26.41;32.89
81299;BME280;70766;53.170;18.160;2023-07-02T11:05:54;99865.38;;;26.59;32.97
81299;BME280;70766;53.170;18.160;2023-07-02T11:08:34;99867.67;;;26.57;33.35
81299;BME280;70766;53.170;18.160;2023-07-02T11:11:05;99873.42;;;26.77;33.33
81299;BME280;70766;53.170;18.160;2023-07-02T11:13:34;99881.73;;;26.73;31.97
81299;BME280;70766;53.170;18.160;2023-07-02T11:16:02;99876.51;;;26.15;32.10
81299;BME280;70766;53.170;18.160;2023-07-02T11:18:31;99875.99;;;26.10;32.80
81299;BME280;70766;53.170;18.160;2023-07-02T11:21:09;99875.10;;;26.10;32.77
81299;BME280;70766;53.170;18.160;2023-07-02T11:23:38;99879.59;;;26.42;32.02
81299;BME280;70766;53.170;18.160;2023-07-02T11:26:07;99886.41;;;26.49;31.71
81299;BME280;70766;53.170;18.160;2023-07-02T11:28:35;99882.08;;;26.54;32.13
81299;BME280;70766;53.170;18.160;2023-07-02T11:31:08;99885.75;;;26.91;31.51
81299;BME280;70766;53.170;18.160;2023-07-02T11:33:40;99888.39;;;26.99;31.35
81299;BME280;70766;53.170;18.160;2023-07-02T11:36:23;99895.25;;;26.92;31.30
81299;BME280;70766;53.170;18.160;2023-07-02T11:38:55;99880.08;;;26.72;30.96
81299;BME280;70766;53.170;18.160;2023-07-02T11:41:23;99876.20;;;26.55;31.58
81299;BME280;70766;53.170;18.160;2023-07-02T11:43:52;99879.05;;;26.29;31.73
81299;BME280;70766;53.170;18.160;2023-07-02T11:46:20;99880.92;;;25.79;32.22
81299;BME280;70766;53.170;18.160;2023-07-02T11:48:48;99887.86;;;25.29;33.11
81299;BME280;70766;53.170;18.160;2023-07-02T11:51:16;99888.08;;;24.94;34.35
81299;BME280;70766;53.170;18.160;2023-07-02T11:53:44;99880.56;;;25.60;33.96
81299;BME280;70766;53.170;18.160;2023-07-02T11:56:12;99882.34;;;26.10;33.55
81299;BME280;70766;53.170;18.160;2023-07-02T11:58:42;99882.02;;;26.47;32.54
81299;BME280;70766;53.170;18.160;2023-07-02T12:01:10;99879.86;;;26.79;31.79
81299;BME280;70766;53.170;18.160;2023-07-02T12:03:38;99872.84;;;27.08;31.31
81299;BME280;70766;53.170;18.160;2023-07-02T12:06:07;99875.86;;;27.09;31.00
81299;BME280;70766;53.170;18.160;2023-07-02T12:08:35;99872.41;;;27.22;30.85
81299;BME280;70766;53.170;18.160;2023-07-02T12:11:03;99885.89;;;27.26;30.13
81299;BME280;70766;53.170;18.160;2023-07-02T12:13:31;99880.45;;;26.98;30.63
81299;BME280;70766;53.170;18.160;2023-07-02T12:15:59;99882.84;;;26.64;31.06
81299;BME280;70766;53.170;18.160;2023-07-02T12:18:27;99879.09;;;26.35;31.42
81299;BME280;70766;53.170;18.160;2023-07-02T12:20:55;99893.48;;;25.97;31.88
81299;BME280;70766;53.170;18.160;2023-07-02T12:23:23;99883.97;;;25.82;32.40
81299;BME280;70766;53.170;18.160;2023-07-02T12:25:51;99889.91;;;25.81;32.79
81299;BME280;70766;53.170;18.160;2023-07-02T12:28:19;99891.27;;;25.79;32.68
81299;BME280;70766;53.170;18.160;2023-07-02T12:30:47;99892.84;;;26.03;33.04
81299;BME280;70766;53.170;18.160;2023-07-02T12:33:16;99896.23;;;26.09;32.88
81299;BME280;70766;53.170;18.160;2023-07-02T12:35:47;99899.42;;;25.78;33.24
81299;BME280;70766;53.170;18.160;2023-07-02T12:38:15;99899.19;;;25.48;33.53
81299;BME280;70766;53.170;18.160;2023-07-02T12:40:44;99901.53;;;25.20;34.22
81299;BME280;70766;53.170;18.160;2023-07-02T12:43:12;99903.61;;;25.03;34.72
81299;BME280;70766;53.170;18.160;2023-07-02T12:45:40;99901.91;;;25.13;35.06
81299;BME280;70766;53.170;18.160;2023-07-02T12:48:08;99909.27;;;25.35;34.93
81299;BME280;70766;53.170;18.160;2023-07-02T12:50:37;99902.09;;;25.71;34.63
81299;BME280;70766;53.170;18.160;2023-07-02T12:53:07;99901.00;;;26.35;34.19
81299;BME280;70766;53.170;18.160;2023-07-02T12:55:35;99900.13;;;26.90;33.47
81299;BME280;70766;53.170;18.160;2023-07-02T12:58:03;99899.68;;;27.06;32.64
81299;BME280;70766;53.170;18.160;2023-07-02T13:00:34;99903.61;;;27.08;32.31